Time;durP1;ratioP1;P1;durP2;ratioP2;P2;SDS_P1;SDS_P2;PMS_P1;PMS_P2;Temp;Humidity;BMP_temperature;BMP_pressure;BME280_temperature;BME280_humidity;BME280_pressure;Samples;Min_cycle;Max_cycle;Signal;HPM_P1;HPM_P2
2023/05/19 00:01:27;;;;;;;10.93;4.72;;;10.70;99.90;;;;;;4008738;29;20194;-91
2023/05/19 00:03:29;;;;;;;15.27;5.00;;;10.70;99.90;;;;;;4024185;29;20209;-89
2023/05/19 00:05:30;;;;;;;18.25;6.03;;;10.70;99.90;;;;;;4008605;29;20219;-89
2023/05/19 00:07:31;;;;;;;16.05;6.07;;;10.60;99.90;;;;;;4023815;29;20182;-89
2023/05/19 00:09:32;;;;;;;13.25;5.90;;;10.60;99.90;;;;;;4008631;29;20239;-89
2023/05/19 00:11:37;;;;;;;17.70;5.15;;;10.50;99.90;;;;;;4008907;29;20574;-89
2023/05/19 00:13:38;;;;;;;11.60;5.77;;;10.30;99.90;;;;;;4008804;29;20676;-89
2023/05/19 00:15:39;;;;;;;19.95;5.88;;;10.10;99.90;;;;;;3993453;29;20223;-95
2023/05/19 00:17:41;;;;;;;13.40;5.93;;;10.00;99.90;;;;;;3993518;29;20207;-93
2023/05/19 00:19:43;;;;;;;14.52;6.00;;;10.00;99.90;;;;;;4008649;29;20187;-90
2023/05/19 00:21:44;;;;;;;14.32;5.18;;;9.90;99.90;;;;;;4008369;29;20266;-89
2023/05/19 00:23:45;;;;;;;14.45;5.22;;;9.90;99.90;;;;;;3992452;29;20684;-89
2023/05/19 00:25:46;;;;;;;16.42;5.53;;;9.90;99.90;;;;;;4008057;29;20206;-89
2023/05/19 00:27:46;;;;;;;16.08;5.82;;;9.90;99.90;;;;;;4023595;29;20182;-89
2023/05/19 00:29:47;;;;;;;22.67;6.25;;;9.80;99.90;;;;;;3993315;29;20194;-89
2023/05/19 00:31:48;;;;;;;12.43;5.80;;;9.80;99.90;;;;;;4023607;29;20174;-89
2023/05/19 00:33:49;;;;;;;17.55;6.07;;;9.90;99.90;;;;;;3993038;29;20577;-89
2023/05/19 00:35:49;;;;;;;15.27;5.18;;;9.90;99.90;;;;;;4008157;29;20199;-89
2023/05/19 00:37:50;;;;;;;13.23;5.57;;;9.90;99.90;;;;;;3992972;29;20179;-94
2023/05/19 00:39:51;;;;;;;17.35;5.95;;;10.10;99.90;;;;;;3993296;29;20175;-89
2023/05/19 00:41:52;;;;;;;16.50;5.55;;;10.10;99.90;;;;;;4008171;29;20185;-89
2023/05/19 00:43:54;;;;;;;12.48;5.43;;;10.10;99.90;;;;;;4023553;29;20269;-89
2023/05/19 00:45:55;;;;;;;14.93;5.57;;;10.00;99.90;;;;;;4008129;29;20202;-92
2023/05/19 00:47:56;;;;;;;14.73;5.25;;;10.10;99.90;;;;;;4008236;29;20279;-90
2023/05/19 00:49:56;;;;;;;16.23;5.43;;;10.10;99.90;;;;;;4023555;29;20170;-88
2023/05/19 00:52:00;;;;;;;13.55;5.78;;;10.10;99.90;;;;;;4008100;29;20712;-89
2023/05/19 00:54:00;;;;;;;14.70;5.22;;;10.00;99.90;;;;;;4007878;29;20654;-89
2023/05/19 00:56:02;;;;;;;16.17;6.33;;;10.20;99.90;;;;;;4007615;29;20255;-90
2023/05/19 00:58:04;;;;;;;14.82;6.10;;;10.20;99.90;;;;;;4007863;29;20186;-90
2023/05/19 01:00:06;;;;;;;17.83;6.18;;;10.20;99.90;;;;;;3992799;29;20720;-89
2023/05/19 01:02:07;;;;;;;15.55;5.40;;;10.20;99.90;;;;;;4007809;29;20373;-90
2023/05/19 01:04:09;;;;;;;14.98;5.88;;;10.00;99.90;;;;;;4007905;29;20183;-88
2023/05/19 01:06:10;;;;;;;14.15;5.80;;;9.90;99.90;;;;;;4007421;29;20194;-89
2023/05/19 01:08:11;;;;;;;15.27;5.87;;;10.00;99.90;;;;;;4007875;29;20263;-89
2023/05/19 01:10:12;;;;;;;19.35;6.88;;;9.90;99.90;;;;;;4007690;29;20641;-89
2023/05/19 01:12:14;;;;;;;16.35;6.03;;;9.90;99.90;;;;;;3992574;29;20259;-89
2023/05/19 01:14:15;;;;;;;15.18;5.88;;;9.90;99.90;;;;;;3992671;29;20220;-90
2023/05/19 01:16:30;;;;;;;16.08;5.95;;;9.80;99.90;;;;;;3992730;29;20664;-89
2023/05/19 01:19:00;;;;;;;15.05;6.57;;;9.90;99.90;;;;;;4007772;29;20178;-90
2023/05/19 01:21:22;;;;;;;12.90;6.20;;;10.00;99.90;;;;;;3989284;29;20737;-90
2023/05/19 01:23:35;;;;;;;19.60;5.75;;;10.10;99.90;;;;;;4023072;29;20186;-89
2023/05/19 01:26:02;;;;;;;16.90;6.20;;;10.10;99.90;;;;;;4022844;29;20239;-90
2023/05/19 01:28:35;;;;;;;16.88;6.53;;;10.00;99.90;;;;;;4007781;29;20263;-93
2023/05/19 01:30:40;;;;;;;15.57;6.65;;;10.00;99.90;;;;;;4007335;29;20215;-89
2023/05/19 01:32:41;;;;;;;15.18;6.38;;;10.00;99.90;;;;;;4007549;29;20709;-89
2023/05/19 01:34:45;;;;;;;11.30;6.13;;;10.00;99.90;;;;;;4022590;29;20246;-89
2023/05/19 01:36:48;;;;;;;15.07;6.40;;;10.00;99.90;;;;;;4007275;29;20175;-89
2023/05/19 01:38:52;;;;;;;14.57;6.27;;;9.80;99.90;;;;;;4007822;29;20230;-90
2023/05/19 01:40:54;;;;;;;20.97;6.20;;;9.60;99.90;;;;;;4007356;29;20186;-90
2023/05/19 01:42:57;;;;;;;17.10;6.57;;;9.60;99.90;;;;;;4007419;29;20255;-89
2023/05/19 01:45:00;;;;;;;14.33;5.73;;;9.60;99.90;;;;;;4007375;29;20194;-89
2023/05/19 01:47:01;;;;;;;20.50;6.50;;;9.40;99.90;;;;;;4022298;29;20182;-90
2023/05/19 01:49:02;;;;;;;16.57;6.40;;;9.50;99.90;;;;;;4007303;29;20183;-90
2023/05/19 01:51:03;;;;;;;14.53;6.60;;;9.70;99.90;;;;;;4007416;29;20237;-90
2023/05/19 01:53:04;;;;;;;15.77;6.77;;;9.70;99.90;;;;;;4007282;29;20199;-93
2023/05/19 01:55:06;;;;;;;21.03;6.93;;;9.60;99.90;;;;;;4007088;29;20227;-90
2023/05/19 01:57:39;;;;;;;12.10;6.60;;;9.40;99.90;;;;;;3992357;29;20199;-91
2023/05/19 01:59:49;;;;;;;16.67;6.37;;;9.50;99.90;;;;;;3989843;29;20223;-89
2023/05/19 02:01:55;;;;;;;18.70;6.87;;;9.70;99.90;;;;;;4007106;29;20186;-89
2023/05/19 02:04:11;;;;;;;17.77;6.90;;;10.10;99.90;;;;;;3992187;29;20183;-89
2023/05/19 02:06:30;;;;;;;13.47;6.00;;;10.00;99.90;;;;;;3991931;29;20286;-89
2023/05/19 02:08:49;;;;;;;19.53;6.60;;;10.00;99.90;;;;;;3991988;29;20183;-90
2023/05/19 02:11:01;;;;;;;13.13;6.17;;;10.10;99.90;;;;;;3992246;29;20692;-93
2023/05/19 02:13:05;;;;;;;14.40;6.43;;;10.50;99.90;;;;;;4006955;29;20521;-90
2023/05/19 02:15:10;;;;;;;15.63;6.50;;;10.70;99.90;;;;;;3992052;29;20309;-87
2023/05/19 02:17:14;;;;;;;16.40;6.40;;;10.70;99.90;;;;;;4006998;29;20183;-90
2023/05/19 02:19:27;;;;;;;17.13;6.23;;;10.80;99.90;;;;;;4007186;29;20239;-88
2023/05/19 02:21:29;;;;;;;14.90;6.30;;;10.90;99.90;;;;;;4006876;29;20206;-89
2023/05/19 02:23:30;;;;;;;17.60;5.73;;;10.80;99.90;;;;;;4006900;29;20174;-89
2023/05/19 02:25:31;;;;;;;21.07;6.77;;;10.60;99.90;;;;;;3992006;29;20207;-91
2023/05/19 02:27:35;;;;;;;14.40;6.40;;;10.50;99.90;;;;;;4022410;29;20174;-88
2023/05/19 02:29:36;;;;;;;18.43;7.00;;;10.60;99.90;;;;;;4006789;29;20175;-88
2023/05/19 02:31:37;;;;;;;16.00;6.27;;;10.60;99.90;;;;;;4007143;29;20258;-88
2023/05/19 02:33:37;;;;;;;15.43;6.70;;;10.50;99.90;;;;;;4007013;29;20175;-88
2023/05/19 02:35:38;;;;;;;16.20;6.97;;;10.50;99.90;;;;;;3991687;29;20215;-89
2023/05/19 02:37:39;;;;;;;16.83;7.40;;;10.50;99.90;;;;;;4006712;29;20175;-89
2023/05/19 02:39:41;;;;;;;14.90;6.80;;;10.50;99.90;;;;;;4022007;29;20174;-88
2023/05/19 02:41:41;;;;;;;14.90;6.90;;;10.50;99.90;;;;;;3999635;29;20186;-88
2023/05/19 02:43:42;;;;;;;22.13;6.67;;;10.60;99.90;;;;;;4006749;29;20633;-89
2023/05/19 02:45:43;;;;;;;13.20;6.57;;;10.50;99.90;;;;;;4006905;29;20259;-89
2023/05/19 02:47:44;;;;;;;14.73;6.37;;;10.60;99.90;;;;;;4008638;29;20244;-88
2023/05/19 02:49:45;;;;;;;19.20;7.13;;;10.50;99.90;;;;;;3994747;29;20184;-90
2023/05/19 02:51:46;;;;;;;11.73;6.03;;;10.50;99.90;;;;;;4024772;29;20758;-88
2023/05/19 02:53:47;;;;;;;12.43;6.60;;;10.50;99.90;;;;;;4009736;29;20296;-91
2023/05/19 02:55:47;;;;;;;17.00;6.53;;;10.60;99.90;;;;;;4025172;29;20214;-91
2023/05/19 02:57:48;;;;;;;16.13;6.80;;;10.40;99.90;;;;;;3994736;29;20183;-91
2023/05/19 02:59:49;;;;;;;15.07;6.70;;;10.50;99.90;;;;;;4009768;29;20175;-90
2023/05/19 03:01:59;;;;;;;14.63;6.23;;;10.50;99.90;;;;;;4009574;29;20261;-91
2023/05/19 03:04:00;;;;;;;17.57;6.83;;;10.80;99.90;;;;;;4009714;29;20243;-88
2023/05/19 03:06:01;;;;;;;17.07;7.03;;;10.90;99.90;;;;;;4009444;29;20202;-93
2023/05/19 03:08:02;;;;;;;19.23;7.00;;;11.00;99.90;;;;;;3994432;29;20278;-87
2023/05/19 03:10:04;;;;;;;14.77;6.93;;;11.10;99.90;;;;;;4024851;29;20189;-88
2023/05/19 03:12:06;;;;;;;16.23;6.50;;;11.00;99.90;;;;;;4009769;29;20719;-88
2023/05/19 03:14:12;;;;;;;16.77;7.00;;;11.00;99.90;;;;;;4009458;29;20198;-90
2023/05/19 03:16:13;;;;;;;22.90;7.30;;;11.00;99.90;;;;;;4024851;29;20660;-89
2023/05/19 03:18:15;;;;;;;14.77;6.50;;;10.80;99.90;;;;;;3994418;29;20183;-88
2023/05/19 03:20:16;;;;;;;18.17;7.60;;;10.80;99.90;;;;;;4024952;29;20174;-88
2023/05/19 03:22:17;;;;;;;19.67;7.13;;;10.70;99.90;;;;;;4009417;29;20212;-89
2023/05/19 03:24:18;;;;;;;18.07;7.00;;;10.70;99.90;;;;;;4009475;29;20175;-90
2023/05/19 03:26:19;;;;;;;16.93;7.00;;;10.90;99.90;;;;;;3994423;29;20184;-91
2023/05/19 03:28:20;;;;;;;12.93;7.23;;;10.90;99.90;;;;;;4009382;29;20183;-91
2023/05/19 03:30:21;;;;;;;14.03;6.97;;;10.90;99.90;;;;;;3994216;29;20586;-90
2023/05/19 03:32:38;;;;;;;21.47;7.07;;;10.80;99.90;;;;;;3995709;29;20179;-89
2023/05/19 03:34:39;;;;;;;17.40;7.77;;;10.80;99.90;;;;;;4001277;29;20226;-89
2023/05/19 03:36:41;;;;;;;15.53;7.33;;;10.70;99.90;;;;;;4017108;29;20185;-90
2023/05/19 03:38:50;;;;;;;19.17;8.07;;;10.40;99.90;;;;;;4009569;29;20178;-93
2023/05/19 03:40:50;;;;;;;18.97;7.80;;;10.20;99.90;;;;;;4009031;29;20183;-90
2023/05/19 03:42:53;;;;;;;13.83;7.50;;;9.70;99.90;;;;;;4024252;29;20273;-91
2023/05/19 03:44:53;;;;;;;15.60;8.23;;;9.50;99.90;;;;;;3993772;29;20196;-90
2023/05/19 03:46:54;;;;;;;18.40;7.93;;;9.30;99.90;;;;;;4024272;29;20654;-90
2023/05/19 03:49:21;;;;;;;20.70;8.30;;;9.30;99.90;;;;;;4012177;29;20191;-90
2023/05/19 03:51:33;;;;;;;12.57;7.87;;;9.20;99.90;;;;;;4009973;29;20189;-94
2023/05/19 03:53:41;;;;;;;20.80;8.20;;;9.20;99.90;;;;;;4009704;29;20207;-90
2023/05/19 03:55:43;;;;;;;21.50;7.60;;;9.00;99.90;;;;;;4008732;29;20223;-90
2023/05/19 03:57:44;;;;;;;18.87;8.40;;;9.10;99.90;;;;;;4008925;29;20201;-90
2023/05/19 03:59:44;;;;;;;22.03;8.27;;;9.00;99.90;;;;;;4008101;29;20656;-90
2023/05/19 04:01:46;;;;;;;17.30;8.23;;;8.90;99.90;;;;;;4008680;29;20186;-89
2023/05/19 04:03:47;;;;;;;22.37;8.20;;;8.90;99.90;;;;;;4008914;29;20187;-93
2023/05/19 04:05:48;;;;;;;14.90;8.20;;;8.90;99.90;;;;;;3993585;29;20681;-90
2023/05/19 04:07:48;;;;;;;22.00;8.37;;;8.90;99.90;;;;;;4008692;29;20236;-94
2023/05/19 04:09:49;;;;;;;15.67;8.47;;;8.80;99.90;;;;;;3993589;29;20614;-92
2023/05/19 04:11:50;;;;;;;16.93;8.63;;;8.80;99.90;;;;;;4008563;29;20175;-93
2023/05/19 04:13:51;;;;;;;20.23;8.17;;;8.90;99.90;;;;;;3993529;29;20184;-91
2023/05/19 04:15:52;;;;;;;17.30;8.67;;;9.00;99.90;;;;;;3993665;29;20229;-91
2023/05/19 04:17:53;;;;;;;23.07;8.70;;;9.00;99.90;;;;;;3993628;29;20210;-93
2023/05/19 04:19:54;;;;;;;12.97;7.70;;;9.10;99.90;;;;;;3993284;29;20653;-90
2023/05/19 04:21:56;;;;;;;15.83;8.43;;;9.00;99.90;;;;;;4008619;29;20190;-90
2023/05/19 04:23:58;;;;;;;18.93;8.33;;;9.10;99.90;;;;;;4008712;29;20185;-93
2023/05/19 04:26:00;;;;;;;19.17;8.47;;;8.90;99.90;;;;;;4008635;29;20199;-90
2023/05/19 04:28:01;;;;;;;19.67;8.57;;;8.90;99.90;;;;;;4008728;29;20683;-90
2023/05/19 04:30:05;;;;;;;15.30;9.10;;;9.00;99.90;;;;;;3993423;29;20180;-94
2023/05/19 04:32:07;;;;;;;16.67;8.50;;;9.00;99.90;;;;;;4008345;29;20183;-90
2023/05/19 04:34:08;;;;;;;18.87;8.90;;;9.10;99.90;;;;;;3993611;29;20183;-90
2023/05/19 04:36:10;;;;;;;18.97;8.70;;;9.30;99.90;;;;;;4008697;29;20198;-90
2023/05/19 04:38:12;;;;;;;25.77;9.23;;;9.70;99.90;;;;;;3993791;29;20179;-94
2023/05/19 04:40:16;;;;;;;18.60;9.00;;;10.10;99.90;;;;;;4008641;29;20621;-90
2023/05/19 04:42:20;;;;;;;18.20;9.20;;;10.10;99.90;;;;;;4008603;29;20171;-90
2023/05/19 04:44:22;;;;;;;21.37;9.40;;;10.10;99.90;;;;;;4008479;29;20167;-94
2023/05/19 04:46:25;;;;;;;17.73;9.10;;;9.90;99.90;;;;;;4008540;29;20239;-90
2023/05/19 04:48:29;;;;;;;22.47;8.53;;;9.70;99.90;;;;;;4008567;29;20178;-89
2023/05/19 04:50:31;;;;;;;17.43;8.37;;;9.60;99.90;;;;;;4023404;29;20179;-93
2023/05/19 04:52:32;;;;;;;14.67;8.83;;;9.50;99.90;;;;;;4008222;29;20175;-90
2023/05/19 04:54:34;;;;;;;17.50;8.63;;;9.70;99.90;;;;;;4023471;29;20283;-89
2023/05/19 04:56:36;;;;;;;18.77;8.67;;;9.80;99.90;;;;;;3993450;29;20183;-94
2023/05/19 04:58:37;;;;;;;18.50;8.83;;;9.90;99.90;;;;;;4008327;29;20541;-90
2023/05/19 05:00:38;;;;;;;14.90;8.23;;;9.60;99.90;;;;;;4008227;29;20225;-92
2023/05/19 05:02:42;;;;;;;14.97;8.03;;;9.50;99.90;;;;;;4008267;29;20182;-89
2023/05/19 05:04:45;;;;;;;16.83;8.70;;;9.60;99.90;;;;;;4008255;29;20263;-90
2023/05/19 05:06:47;;;;;;;19.00;9.27;;;9.80;99.90;;;;;;4008054;29;20195;-91
2023/05/19 05:08:48;;;;;;;18.30;9.60;;;10.00;99.90;;;;;;4024608;29;20179;-88
2023/05/19 05:10:53;;;;;;;18.27;9.03;;;10.10;99.90;;;;;;3993321;29;20180;-88
2023/05/19 05:12:55;;;;;;;21.10;9.43;;;10.30;99.90;;;;;;4009065;29;20201;-89
2023/05/19 05:14:56;;;;;;;19.30;9.30;;;10.30;99.90;;;;;;4007667;29;20219;-89
2023/05/19 05:16:57;;;;;;;20.50;10.03;;;10.40;99.90;;;;;;4023393;29;20182;-90
2023/05/19 05:19:00;;;;;;;26.90;10.10;;;10.50;99.90;;;;;;4007796;29;20227;-88
2023/05/19 05:21:01;;;;;;;20.33;9.97;;;10.60;99.90;;;;;;3993146;29;20200;-89
2023/05/19 05:23:03;;;;;;;19.93;10.00;;;10.50;99.90;;;;;;4007991;29;20175;-94
2023/05/19 05:25:06;;;;;;;20.83;9.70;;;10.50;99.90;;;;;;4007624;29;20292;-88
2023/05/19 05:27:08;;;;;;;24.43;10.00;;;10.50;99.90;;;;;;4008311;29;20224;-89
2023/05/19 05:29:10;;;;;;;21.07;9.30;;;10.40;99.90;;;;;;4023943;29;20261;-89
2023/05/19 05:31:11;;;;;;;22.00;9.90;;;10.40;99.90;;;;;;4023733;29;20178;-88
2023/05/19 05:33:13;;;;;;;18.87;10.37;;;10.40;99.90;;;;;;3993929;29;20176;-89
2023/05/19 05:35:15;;;;;;;22.07;10.00;;;10.40;99.90;;;;;;4007539;29;20250;-89
2023/05/19 05:37:16;;;;;;;23.73;10.63;;;10.40;99.90;;;;;;4008809;29;20605;-90
2023/05/19 05:39:17;;;;;;;22.13;9.87;;;10.40;99.90;;;;;;4008134;29;20171;-89
2023/05/19 05:41:20;;;;;;;14.30;9.80;;;10.40;99.90;;;;;;3993625;29;20179;-88
2023/05/19 05:43:22;;;;;;;23.17;10.03;;;10.40;99.90;;;;;;4023619;29;20179;-89
2023/05/19 05:45:29;;;;;;;23.80;10.87;;;10.40;99.90;;;;;;3993624;29;20665;-89
2023/05/19 05:47:32;;;;;;;18.07;10.33;;;10.50;99.90;;;;;;4009276;29;20255;-89
2023/05/19 05:49:36;;;;;;;21.77;10.63;;;10.50;99.90;;;;;;4007413;29;20174;-89
2023/05/19 05:51:38;;;;;;;18.27;9.87;;;10.40;99.90;;;;;;3994114;29;20186;-88
2023/05/19 05:53:43;;;;;;;20.40;9.50;;;10.50;99.90;;;;;;4008760;29;20213;-89
2023/05/19 05:55:46;;;;;;;22.03;10.50;;;10.50;99.90;;;;;;4008435;29;20226;-89
2023/05/19 05:57:49;;;;;;;24.83;10.47;;;10.70;99.90;;;;;;4008698;29;20178;-89
2023/05/19 05:59:50;;;;;;;24.23;10.07;;;11.00;99.90;;;;;;4007675;29;20175;-88
2023/05/19 06:01:50;;;;;;;19.33;10.30;;;11.20;99.90;;;;;;4007393;29;20183;-89
2023/05/19 06:03:52;;;;;;;15.23;9.10;;;11.30;99.90;;;;;;4008260;29;20175;-89
2023/05/19 06:05:57;;;;;;;24.83;9.13;;;11.30;99.90;;;;;;4011364;29;20217;-89
2023/05/19 06:07:57;;;;;;;18.60;10.27;;;11.30;99.90;;;;;;4018184;29;20186;-88
2023/05/19 06:10:00;;;;;;;28.25;9.93;;;11.30;99.90;;;;;;3993430;29;20581;-88
2023/05/19 06:12:01;;;;;;;22.00;10.80;;;11.30;99.90;;;;;;4007830;29;20220;-88
2023/05/19 06:14:07;;;;;;;20.73;10.53;;;11.30;99.90;;;;;;4022397;29;20179;-88
2023/05/19 06:16:28;;;;;;;20.70;9.97;;;11.30;99.90;;;;;;4010104;29;20668;-94
2023/05/19 06:18:29;;;;;;;22.63;10.40;;;11.30;99.90;;;;;;4007004;29;20197;-88
2023/05/19 06:20:30;;;;;;;16.83;9.77;;;11.40;99.90;;;;;;4007204;29;20319;-89
2023/05/19 06:22:31;;;;;;;24.07;9.77;;;11.50;99.90;;;;;;3991565;29;20665;-89
2023/05/19 06:24:31;;;;;;;20.70;9.50;;;11.60;99.90;;;;;;4008061;29;20207;-93
2023/05/19 06:26:32;;;;;;;23.57;9.87;;;11.70;99.90;;;;;;4009297;29;20225;-92
2023/05/19 06:28:33;;;;;;;16.10;8.77;;;11.70;99.90;;;;;;4024543;29;20186;-89
2023/05/19 06:30:35;;;;;;;15.07;8.88;;;11.80;99.90;;;;;;4022932;29;20196;-89
2023/05/19 06:32:52;;;;;;;20.80;9.80;;;11.80;99.90;;;;;;4022588;29;20182;-95
2023/05/19 06:34:53;;;;;;;20.00;9.70;;;12.00;99.90;;;;;;4008697;29;20238;-91
2023/05/19 06:36:54;;;;;;;22.00;10.00;;;12.00;99.90;;;;;;4009256;29;20202;-94
2023/05/19 06:38:56;;;;;;;26.13;9.73;;;12.10;99.90;;;;;;4010715;29;20183;-95
2023/05/19 06:40:57;;;;;;;22.40;9.70;;;12.20;99.90;;;;;;4007709;29;20167;-89
2023/05/19 06:42:58;;;;;;;14.98;8.93;;;12.20;99.90;;;;;;4022965;29;20186;-89
2023/05/19 06:45:22;;;;;;;15.83;9.03;;;12.10;99.90;;;;;;4008597;29;20201;-94
2023/05/19 06:47:25;;;;;;;22.60;10.00;;;12.20;99.90;;;;;;3992477;29;20646;-89
2023/05/19 06:49:28;;;;;;;28.73;9.30;;;12.30;99.90;;;;;;4007876;29;20183;-88
2023/05/19 06:51:30;;;;;;;20.27;9.40;;;12.20;99.90;;;;;;4007002;29;20190;-89
2023/05/19 06:53:33;;;;;;;16.77;9.63;;;12.50;99.90;;;;;;4021993;29;20224;-89
2023/05/19 06:55:36;;;;;;;20.63;8.93;;;12.70;99.90;;;;;;4022453;29;20222;-89
2023/05/19 06:57:37;;;;;;;18.70;9.70;;;12.80;99.90;;;;;;4007602;29;20215;-94
2023/05/19 06:59:40;;;;;;;23.08;9.73;;;12.90;99.90;;;;;;4007209;29;20183;-89
2023/05/19 07:01:40;;;;;;;26.85;10.07;;;13.00;99.90;;;;;;4007059;29;20175;-89
2023/05/19 07:03:42;;;;;;;17.42;9.30;;;13.10;99.90;;;;;;4007662;29;20698;-89
2023/05/19 07:05:44;;;;;;;17.33;10.00;;;13.20;99.90;;;;;;4022391;29;20208;-89
2023/05/19 07:07:45;;;;;;;17.83;8.43;;;13.30;99.90;;;;;;4006848;29;20182;-89
2023/05/19 07:09:49;;;;;;;22.73;9.07;;;13.60;99.90;;;;;;4007363;29;20175;-95
2023/05/19 07:11:50;;;;;;;17.45;7.90;;;14.60;99.90;;;;;;4007423;29;20240;-89
2023/05/19 07:13:50;;;;;;;19.00;8.18;;;15.90;99.90;;;;;;4006864;29;20228;-90
2023/05/19 07:15:57;;;;;;;13.63;6.93;;;16.90;99.90;;;;;;4006904;29;20222;-89
2023/05/19 07:17:59;;;;;;;15.38;7.03;;;17.70;99.90;;;;;;4022068;29;20178;-94
2023/05/19 07:20:00;;;;;;;16.10;7.00;;;18.10;99.90;;;;;;4009100;29;20203;-89
2023/05/19 07:22:01;;;;;;;17.20;6.20;;;18.40;99.90;;;;;;4007319;29;20179;-89
2023/05/19 07:24:02;;;;;;;14.75;7.75;;;18.70;99.90;;;;;;4006981;29;20181;-89
2023/05/19 07:26:03;;;;;;;15.07;7.32;;;19.10;99.90;;;;;;3992822;29;20669;-89
2023/05/19 07:28:04;;;;;;;16.88;7.68;;;19.50;99.90;;;;;;4010108;29;20207;-90
2023/05/19 07:30:05;;;;;;;20.63;8.15;;;19.40;99.90;;;;;;3993333;29;20176;-89
2023/05/19 07:32:06;;;;;;;14.63;6.88;;;19.40;99.90;;;;;;3991642;29;20271;-89
2023/05/19 07:34:07;;;;;;;12.30;6.15;;;19.80;99.90;;;;;;4010068;29;20176;-89
2023/05/19 07:36:08;;;;;;;17.92;7.25;;;20.30;99.90;;;;;;4011609;29;20198;-89
2023/05/19 07:38:09;;;;;;;10.88;6.80;;;20.80;99.90;;;;;;4025054;29;20189;-90
2023/05/19 07:40:10;;;;;;;13.80;6.60;;;21.20;99.90;;;;;;4009314;29;20187;-96
2023/05/19 07:42:11;;;;;;;13.77;6.72;;;21.70;99.90;;;;;;4009738;29;20183;-90
2023/05/19 07:44:11;;;;;;;15.20;6.35;;;21.50;99.90;;;;;;4010052;29;20702;-90
2023/05/19 07:46:12;;;;;;;13.68;7.07;;;21.40;99.90;;;;;;4024829;29;20238;-92
2023/05/19 07:48:14;;;;;;;15.55;5.93;;;21.60;99.90;;;;;;4009162;29;20179;-90
2023/05/19 07:50:15;;;;;;;12.57;5.95;;;21.20;99.90;;;;;;4011144;29;20213;-90
2023/05/19 07:52:17;;;;;;;16.92;6.95;;;21.40;99.90;;;;;;4009195;29;20174;-90
2023/05/19 07:54:19;;;;;;;15.25;6.97;;;22.00;99.90;;;;;;4028266;29;20530;-89
2023/05/19 07:56:20;;;;;;;16.02;6.53;;;21.90;99.90;;;;;;4009640;29;20179;-89
2023/05/19 07:58:21;;;;;;;19.08;6.97;;;21.70;99.90;;;;;;4009859;29;20187;-90
2023/05/19 08:00:22;;;;;;;12.00;6.18;;;21.80;99.90;;;;;;3995053;29;20182;-90
2023/05/19 08:02:22;;;;;;;17.40;6.93;;;22.10;99.90;;;;;;4009155;29;20183;-90
2023/05/19 08:04:23;;;;;;;15.18;6.05;;;22.50;99.90;;;;;;3994581;29;20175;-90
2023/05/19 08:06:24;;;;;;;10.85;5.78;;;22.40;99.90;;;;;;3995530;29;20692;-89
2023/05/19 08:08:26;;;;;;;15.98;6.70;;;22.50;99.90;;;;;;4025868;29;20198;-89
2023/05/19 08:10:27;;;;;;;11.27;6.25;;;23.00;99.90;;;;;;4010842;29;20645;-89
2023/05/19 08:12:28;;;;;;;15.25;6.53;;;23.30;99.90;;;;;;4009847;29;20183;-96
2023/05/19 08:14:30;;;;;;;16.48;6.35;;;23.20;99.90;;;;;;4039059;29;20628;-91
2023/05/19 08:16:30;;;;;;;14.80;6.25;;;23.50;99.90;;;;;;4025089;29;20198;-90
2023/05/19 08:18:31;;;;;;;16.38;6.25;;;23.30;99.90;;;;;;4009229;29;20179;-89
2023/05/19 08:20:32;;;;;;;11.57;6.18;;;22.80;99.90;;;;;;4009914;29;20185;-95
2023/05/19 08:22:33;;;;;;;11.00;6.13;;;22.80;99.90;;;;;;3994647;29;20183;-95
2023/05/19 08:24:43;;;;;;;15.27;6.25;;;22.10;99.90;;;;;;4010072;29;20194;-92
2023/05/19 08:26:46;;;;;;;15.55;6.15;;;22.30;99.90;;;;;;3994455;29;20187;-88
2023/05/19 08:28:46;;;;;;;13.82;6.30;;;21.90;99.90;;;;;;4010389;29;20202;-89
2023/05/19 08:30:49;;;;;;;12.52;5.85;;;21.90;99.90;;;;;;4007751;29;20187;-90
2023/05/19 08:32:50;;;;;;;14.90;5.82;;;22.20;99.90;;;;;;4002137;29;20322;-89
2023/05/19 08:34:51;;;;;;;15.77;6.40;;;21.90;99.90;;;;;;3994664;29;20219;-88
2023/05/19 08:36:52;;;;;;;18.27;6.03;;;21.80;99.90;;;;;;4001264;29;20202;-89
2023/05/19 08:38:53;;;;;;;11.25;5.53;;;22.10;99.90;;;;;;4009365;29;20182;-89
2023/05/19 08:40:54;;;;;;;14.60;6.10;;;22.40;99.90;;;;;;4009263;29;20193;-89
2023/05/19 08:42:54;;;;;;;12.75;6.13;;;22.60;99.90;;;;;;3997508;29;20251;-90
2023/05/19 08:44:55;;;;;;;12.10;6.25;;;22.40;99.90;;;;;;4016124;29;20202;-89
2023/05/19 08:47:02;;;;;;;16.00;5.72;;;21.90;99.90;;;;;;4009750;29;20175;-89
2023/05/19 08:49:10;;;;;;;12.50;5.68;;;21.40;99.90;;;;;;3992508;29;20218;-88
2023/05/19 08:51:26;;;;;;;7.80;5.32;;;21.80;99.90;;;;;;4008526;29;20174;-89
2023/05/19 08:53:32;;;;;;;17.35;6.22;;;21.80;99.90;;;;;;4009529;29;20530;-88
2023/05/19 08:55:46;;;;;;;12.68;6.10;;;21.70;99.90;;;;;;4008886;29;20295;-89
2023/05/19 08:57:51;;;;;;;14.70;5.53;;;21.90;99.90;;;;;;4012330;29;20183;-88
2023/05/19 08:59:54;;;;;;;14.15;5.20;;;21.50;99.90;;;;;;3994663;29;20202;-89
2023/05/19 09:01:59;;;;;;;11.68;5.57;;;21.60;99.90;;;;;;4007948;29;20179;-89
2023/05/19 09:04:00;;;;;;;17.50;5.43;;;21.70;99.90;;;;;;4010171;29;20351;-89
2023/05/19 09:06:01;;;;;;;10.70;5.40;;;21.60;99.90;;;;;;4023235;29;20202;-88
2023/05/19 09:08:03;;;;;;;12.00;5.10;;;21.90;99.90;;;;;;4009513;29;20179;-89
2023/05/19 09:10:05;;;;;;;15.25;5.45;;;21.50;99.90;;;;;;4009812;29;20258;-88
2023/05/19 09:12:05;;;;;;;17.30;5.65;;;21.40;99.90;;;;;;4026349;29;20181;-93
2023/05/19 09:14:06;;;;;;;11.60;5.40;;;21.40;99.90;;;;;;4022746;29;20194;-88
2023/05/19 09:16:07;;;;;;;13.95;5.28;;;21.50;99.90;;;;;;4007792;29;20195;-89
2023/05/19 09:18:13;;;;;;;12.82;5.32;;;21.20;99.90;;;;;;4023103;29;20183;-88
2023/05/19 09:20:16;;;;;;;15.00;5.07;;;21.10;99.90;;;;;;4007765;29;20589;-89
2023/05/19 09:22:20;;;;;;;13.40;5.40;;;21.60;99.90;;;;;;4008027;29;20251;-87
2023/05/19 09:24:24;;;;;;;14.48;5.05;;;21.80;99.90;;;;;;4007768;29;20178;-88
2023/05/19 09:26:36;;;;;;;15.43;4.85;;;21.30;99.90;;;;;;4023061;29;20186;-88
2023/05/19 09:28:39;;;;;;;15.60;5.45;;;21.20;99.90;;;;;;4008460;29;20258;-94
2023/05/19 09:30:40;;;;;;;15.18;4.85;;;21.40;99.90;;;;;;4009152;29;20178;-95
2023/05/19 09:32:41;;;;;;;11.73;4.45;;;21.50;99.90;;;;;;4024413;29;20671;-94
2023/05/19 09:34:42;;;;;;;10.68;4.35;;;21.30;99.90;;;;;;4010048;29;20245;-87
2023/05/19 09:36:45;;;;;;;14.35;4.07;;;21.20;99.90;;;;;;4007573;29;20216;-94
2023/05/19 09:38:45;;;;;;;12.30;4.70;;;21.20;99.90;;;;;;3994084;29;20222;-89
2023/05/19 09:40:48;;;;;;;14.55;4.85;;;21.10;99.90;;;;;;4024074;29;20253;-87
2023/05/19 09:42:49;;;;;;;9.85;4.65;;;20.60;99.90;;;;;;3993651;29;20647;-93
2023/05/19 09:44:50;;;;;;;11.98;4.55;;;20.60;99.90;;;;;;4023706;29;20186;-95
2023/05/19 09:46:52;;;;;;;11.27;4.60;;;21.10;99.90;;;;;;4007991;29;20210;-96
2023/05/19 09:48:59;;;;;;;26.08;5.30;;;21.30;99.90;;;;;;3995064;29;20200;-96
2023/05/19 09:51:02;;;;;;;11.30;4.15;;;21.90;99.90;;;;;;4010385;29;20284;-88
2023/05/19 09:53:03;;;;;;;14.55;4.97;;;21.90;99.90;;;;;;4008919;29;20185;-94
2023/05/19 09:55:09;;;;;;;10.93;4.70;;;21.60;99.90;;;;;;4024803;29;20664;-94
2023/05/19 09:57:10;;;;;;;11.23;4.32;;;21.30;99.90;;;;;;4009156;29;20214;-87
2023/05/19 09:59:14;;;;;;;13.07;3.70;;;21.30;99.90;;;;;;4007745;29;20652;-88
2023/05/19 10:01:15;;;;;;;11.68;3.78;;;21.10;99.90;;;;;;4007785;29;20653;-88
2023/05/19 10:03:17;;;;;;;10.77;3.63;;;21.10;99.90;;;;;;4023860;29;20215;-94
2023/05/19 10:05:19;;;;;;;11.50;3.60;;;21.30;99.90;;;;;;3992735;29;20195;-87
2023/05/19 10:07:22;;;;;;;9.82;3.70;;;21.20;99.90;;;;;;4008018;29;20187;-88
2023/05/19 10:09:25;;;;;;;12.82;3.88;;;21.20;99.90;;;;;;4006766;29;20171;-88
2023/05/19 10:11:26;;;;;;;12.18;2.90;;;21.20;99.90;;;;;;4007100;29;20273;-88
2023/05/19 10:13:29;;;;;;;7.30;2.70;;;21.20;99.90;;;;;;4007264;29;20174;-89
2023/05/19 10:15:30;;;;;;;11.40;3.08;;;21.80;99.90;;;;;;4022353;29;20221;-89
2023/05/19 10:17:33;;;;;;;8.07;2.63;;;22.10;99.90;;;;;;4022538;29;20166;-87
2023/05/19 10:19:35;;;;;;;9.95;2.75;;;21.80;99.90;;;;;;4006867;29;20191;-90
2023/05/19 10:21:36;;;;;;;11.13;3.13;;;21.30;99.90;;;;;;4006581;29;20178;-87
2023/05/19 10:23:37;;;;;;;13.88;3.17;;;20.90;99.90;;;;;;4007432;29;20231;-87
2023/05/19 10:25:39;;;;;;;10.40;3.13;;;20.80;99.90;;;;;;4007200;29;20211;-88
2023/05/19 10:27:43;;;;;;;13.82;3.15;;;20.20;99.90;;;;;;4006912;29;20190;-88
2023/05/19 10:29:48;;;;;;;11.07;2.78;;;20.00;99.90;;;;;;4006664;29;20174;-87
2023/05/19 10:31:51;;;;;;;8.23;2.70;;;19.90;99.90;;;;;;4006682;29;20656;-87
2023/05/19 10:34:17;;;;;;;9.18;2.90;;;19.70;99.90;;;;;;4023145;29;20178;-87